Time;durP1;ratioP1;P1;durP2;ratioP2;P2;SDS_P1;SDS_P2;PMS_P1;PMS_P2;Temp;Humidity;BMP_temperature;BMP_pressure;BME280_temperature;BME280_humidity;BME280_pressure;Samples;Min_cycle;Max_cycle;Signal;HPM_P1;HPM_P2
2021/03/20 00:00:48;;;;;;;13.82;12.93;;;-1.10;99.90;;;;;;5004601;28;20572;-75
2021/03/20 00:03:15;;;;;;;14.20;13.15;;;-1.10;99.90;;;;;;5004151;28;20458;-74
2021/03/20 00:05:42;;;;;;;14.07;13.07;;;-1.10;99.90;;;;;;5019926;28;20096;-75
2021/03/20 00:08:11;;;;;;;13.88;12.98;;;-1.20;99.90;;;;;;4987927;28;20657;-75
2021/03/20 00:10:38;;;;;;;13.95;12.85;;;-1.20;99.90;;;;;;4987396;28;20597;-74
2021/03/20 00:13:05;;;;;;;14.35;13.38;;;-1.20;99.90;;;;;;5005081;28;20132;-75
2021/03/20 00:15:32;;;;;;;13.60;12.55;;;-1.20;99.90;;;;;;4969451;28;20100;-75
2021/03/20 00:17:59;;;;;;;13.60;12.80;;;-1.20;99.90;;;;;;4987780;28;20088;-75
2021/03/20 00:20:32;;;;;;;14.27;12.98;;;-1.20;99.90;;;;;;4995177;28;20087;-74
2021/03/20 00:22:59;;;;;;;13.85;13.02;;;-1.30;99.90;;;;;;4986416;28;20057;-76
2021/03/20 00:25:25;;;;;;;13.98;13.18;;;-1.30;99.90;;;;;;4989774;28;20133;-75
2021/03/20 00:27:53;;;;;;;13.57;12.60;;;-1.30;99.90;;;;;;5008910;28;20050;-75
2021/03/20 00:30:20;;;;;;;13.77;12.65;;;-1.30;99.90;;;;;;4991432;28;20705;-76
2021/03/20 00:32:46;;;;;;;14.55;13.20;;;-1.30;99.90;;;;;;5007428;28;20077;-75
2021/03/20 00:35:17;;;;;;;13.45;12.60;;;-1.30;99.90;;;;;;5005288;28;20065;-76
2021/03/20 00:37:43;;;;;;;13.75;12.75;;;-1.30;99.90;;;;;;5008089;28;20489;-74
2021/03/20 00:40:17;;;;;;;13.82;12.90;;;-1.30;99.90;;;;;;5023359;28;20494;-76
2021/03/20 00:42:44;;;;;;;13.90;12.98;;;-1.30;99.90;;;;;;5006704;28;20148;-76
2021/03/20 00:45:13;;;;;;;13.15;12.43;;;-1.30;99.90;;;;;;5005791;28;20128;-75
2021/03/20 00:47:39;;;;;;;13.73;12.82;;;-1.30;99.90;;;;;;4990920;28;20137;-74
2021/03/20 00:50:10;;;;;;;14.10;13.00;;;-1.40;99.90;;;;;;4983416;28;20045;-76
2021/03/20 00:52:37;;;;;;;13.50;12.50;;;-1.40;99.90;;;;;;4990440;28;20052;-76
2021/03/20 00:55:04;;;;;;;12.98;12.02;;;-1.40;99.90;;;;;;5023587;28;20652;-76
2021/03/20 00:57:31;;;;;;;12.93;12.02;;;-1.40;99.90;;;;;;4990357;28;20065;-75
2021/03/20 00:59:57;;;;;;;13.48;12.38;;;-1.50;99.90;;;;;;4990943;28;20503;-75
2021/03/20 01:02:24;;;;;;;12.55;11.75;;;-1.50;99.90;;;;;;5006496;28;20046;-74
2021/03/20 01:04:50;;;;;;;12.98;11.98;;;-1.60;99.90;;;;;;5006571;28;20638;-76
2021/03/20 01:07:17;;;;;;;13.07;12.05;;;-1.70;99.90;;;;;;5006744;28;20050;-75
2021/03/20 01:09:43;;;;;;;13.30;12.40;;;-1.70;99.90;;;;;;4990635;28;20064;-74
2021/03/20 01:12:10;;;;;;;13.40;12.50;;;-1.60;99.90;;;;;;5022592;28;20056;-75
2021/03/20 01:14:36;;;;;;;12.75;11.82;;;-1.60;99.90;;;;;;4990764;28;20081;-75
2021/03/20 01:17:03;;;;;;;12.68;11.80;;;-1.60;99.90;;;;;;4993749;28;20078;-75
2021/03/20 01:19:29;;;;;;;13.23;12.20;;;-1.70;99.90;;;;;;4980389;28;20064;-75
2021/03/20 01:21:56;;;;;;;13.35;12.25;;;-1.70;99.90;;;;;;5002738;28;20077;-75
2021/03/20 01:24:22;;;;;;;12.77;11.75;;;-1.70;99.90;;;;;;5003648;28;20060;-75
2021/03/20 01:26:48;;;;;;;12.55;11.75;;;-1.70;99.90;;;;;;5012134;28;20049;-74
2021/03/20 01:29:14;;;;;;;12.02;11.20;;;-1.90;99.90;;;;;;4990452;28;20148;-76
2021/03/20 01:31:41;;;;;;;11.55;10.93;;;-1.90;99.90;;;;;;5006600;28;20483;-76
2021/03/20 01:34:08;;;;;;;11.82;11.07;;;-1.90;99.90;;;;;;5003553;28;20057;-75
2021/03/20 01:36:34;;;;;;;12.63;11.68;;;-1.80;99.90;;;;;;4981302;28;20046;-76
2021/03/20 01:39:00;;;;;;;12.70;11.90;;;-1.80;99.90;;;;;;5005669;28;20132;-75
2021/03/20 01:41:27;;;;;;;11.88;11.07;;;-1.80;99.90;;;;;;4972388;28;20056;-75
2021/03/20 01:43:54;;;;;;;12.38;11.48;;;-1.90;99.90;;;;;;4989477;28;20823;-75
2021/03/20 01:46:40;;;;;;;11.80;10.95;;;-2.00;99.90;;;;;;4985733;28;20082;-75
2021/03/20 01:49:33;;;;;;;12.15;11.30;;;-2.10;99.90;;;;;;5003157;28;20725;-76
2021/03/20 01:52:11;;;;;;;11.52;10.73;;;-2.10;99.90;;;;;;4976290;28;20177;-76
2021/03/20 01:54:54;;;;;;;11.38;10.70;;;-2.20;99.90;;;;;;4989335;28;20059;-74
2021/03/20 01:57:29;;;;;;;11.25;10.55;;;-2.10;99.90;;;;;;5006886;28;20042;-75
2021/03/20 01:59:57;;;;;;;11.55;10.80;;;-2.10;99.90;;;;;;5006040;28;20050;-75
2021/03/20 02:02:24;;;;;;;12.25;11.38;;;-2.10;99.90;;;;;;5005439;28;20069;-75
2021/03/20 02:04:51;;;;;;;11.07;10.38;;;-2.10;99.90;;;;;;5006040;28;20054;-75
2021/03/20 02:07:17;;;;;;;11.13;10.43;;;-2.10;99.90;;;;;;4988589;28;20149;-76
2021/03/20 02:09:44;;;;;;;11.80;10.77;;;-2.10;99.90;;;;;;5007180;28;20096;-75
2021/03/20 02:12:13;;;;;;;10.88;10.02;;;-2.00;99.90;;;;;;4988981;28;20112;-75
2021/03/20 02:15:03;;;;;;;11.23;10.40;;;-2.10;99.90;;;;;;4987518;28;20526;-74
2021/03/20 02:17:39;;;;;;;10.32;9.63;;;-2.10;99.90;;;;;;4999621;28;20053;-75
2021/03/20 02:20:38;;;;;;;10.23;9.70;;;-2.10;99.90;;;;;;5013543;28;20088;-75
2021/03/20 02:23:08;;;;;;;10.43;9.93;;;-2.10;99.90;;;;;;4999309;28;20150;-74
2021/03/20 02:25:53;;;;;;;10.18;9.38;;;-2.10;99.90;;;;;;5004057;28;20229;-74
2021/03/20 02:28:57;;;;;;;10.82;10.13;;;-2.00;99.90;;;;;;5000948;28;20514;-75
2021/03/20 02:31:42;;;;;;;11.20;10.07;;;-2.10;99.90;;;;;;5000824;28;20053;-75
2021/03/20 02:34:08;;;;;;;;;;;-2.00;99.90;;;;;;4987796;28;20426;-74
2021/03/20 02:36:37;;;;;;;11.73;10.77;;;-2.00;99.90;;;;;;4999506;28;19960;-75
2021/03/20 02:39:40;;;;;;;11.20;10.60;;;-2.10;99.90;;;;;;4989716;28;20050;-75
2021/03/20 02:42:11;;;;;;;10.57;10.02;;;-2.30;99.90;;;;;;4983347;28;20138;-75
2021/03/20 02:45:04;;;;;;;11.60;10.60;;;-2.20;99.90;;;;;;5003757;28;20136;-75
2021/03/20 02:47:36;;;;;;;15.73;11.95;;;-2.20;99.90;;;;;;4960130;28;20046;-76
2021/03/20 02:50:13;;;;;;;11.45;10.60;;;-2.30;99.90;;;;;;4969876;28;20061;-75
2021/03/20 02:52:54;;;;;;;10.90;10.05;;;-2.30;99.90;;;;;;4985076;28;20058;-76
2021/03/20 02:55:35;;;;;;;11.00;10.20;;;-2.30;99.90;;;;;;4999203;28;20054;-74
2021/03/20 02:58:07;;;;;;;11.30;10.35;;;-2.30;99.90;;;;;;4987012;28;20061;-73
2021/03/20 03:00:38;;;;;;;10.63;10.00;;;-2.20;99.90;;;;;;4984758;28;20046;-74
2021/03/20 03:03:09;;;;;;;10.95;10.43;;;-2.30;99.90;;;;;;5018067;28;20096;-74
2021/03/20 03:05:58;;;;;;;10.20;9.70;;;-2.20;99.90;;;;;;4988727;28;20509;-74
2021/03/20 03:08:29;;;;;;;11.18;10.38;;;-2.30;99.90;;;;;;5003821;28;20148;-75
2021/03/20 03:11:03;;;;;;;11.00;10.30;;;-2.30;99.90;;;;;;5004291;28;20792;-74
2021/03/20 03:13:34;;;;;;;10.48;9.98;;;-2.40;99.90;;;;;;4987230;28;20108;-75
2021/03/20 03:16:19;;;;;;;11.07;10.30;;;-2.50;99.90;;;;;;5004083;28;20053;-74
2021/03/20 03:18:52;;;;;;;10.80;9.93;;;-2.60;99.90;;;;;;4983045;28;20042;-75
2021/03/20 03:21:20;;;;;;;10.63;10.02;;;-2.50;99.90;;;;;;4997632;28;20052;-75
2021/03/20 03:23:46;;;;;;;11.05;10.15;;;-2.40;99.90;;;;;;4994743;28;20133;-74
2021/03/20 03:26:25;;;;;;;11.27;10.27;;;-2.40;99.90;;;;;;4984284;28;20410;-76
2021/03/20 03:28:55;;;;;;;11.18;10.43;;;-2.40;99.90;;;;;;4982309;28;20049;-74
2021/03/20 03:31:41;;;;;;;11.27;10.65;;;-2.50;99.90;;;;;;4988052;28;20292;-75
2021/03/20 03:34:16;;;;;;;12.60;10.98;;;-2.50;99.90;;;;;;4979707;28;20046;-74
2021/03/20 03:37:17;;;;;;;11.50;10.60;;;-2.60;99.90;;;;;;4983888;28;20557;-74
2021/03/20 03:39:51;;;;;;;10.88;10.15;;;-2.50;99.90;;;;;;4986911;28;20158;-75
2021/03/20 03:42:19;;;;;;;11.68;10.98;;;-2.60;99.90;;;;;;4999967;28;20128;-74
2021/03/20 03:44:48;;;;;;;11.23;10.48;;;-2.70;99.90;;;;;;4999246;28;20050;-73
2021/03/20 03:47:18;;;;;;;10.65;10.13;;;-2.90;99.90;;;;;;4996965;28;20042;-75
2021/03/20 03:49:45;;;;;;;10.55;9.85;;;-3.00;99.90;;;;;;4971196;28;20050;-74
2021/03/20 03:52:13;;;;;;;11.00;10.20;;;-2.90;99.90;;;;;;5005445;28;20141;-76
2021/03/20 03:54:41;;;;;;;10.55;10.00;;;-2.90;99.90;;;;;;5003931;28;20402;-75
2021/03/20 03:57:15;;;;;;;10.45;9.70;;;-2.90;99.90;;;;;;5004023;28;20065;-75
2021/03/20 04:00:10;;;;;;;10.93;10.07;;;-2.90;99.90;;;;;;4991638;28;20208;-76
2021/03/20 04:02:49;;;;;;;11.95;11.05;;;-3.00;99.90;;;;;;5008412;28;20042;-74
2021/03/20 04:05:37;;;;;;;10.75;9.85;;;-3.10;99.90;;;;;;4991479;28;20080;-75
2021/03/20 04:08:31;;;;;;;11.88;10.63;;;-3.20;99.90;;;;;;5008532;28;20670;-75
2021/03/20 04:11:02;;;;;;;10.98;10.05;;;-3.30;99.90;;;;;;4995376;28;20046;-74
2021/03/20 04:13:56;;;;;;;11.38;10.57;;;-3.20;99.90;;;;;;4990584;28;20077;-75
2021/03/20 04:16:31;;;;;;;10.07;9.10;;;-3.00;99.90;;;;;;5013006;28;20532;-74
2021/03/20 04:19:20;;;;;;;10.25;9.55;;;-2.90;99.90;;;;;;4976586;28;20049;-74
2021/03/20 04:21:58;;;;;;;10.50;9.63;;;-2.90;99.90;;;;;;4998541;28;20069;-75
2021/03/20 04:24:50;;;;;;;9.35;8.63;;;-3.00;99.90;;;;;;5001891;28;20187;-74
2021/03/20 04:27:29;;;;;;;9.45;8.57;;;-3.10;99.90;;;;;;4996807;28;20137;-74
2021/03/20 04:30:23;;;;;;;10.55;9.05;;;-3.10;99.90;;;;;;4981906;28;20084;-74
2021/03/20 04:32:58;;;;;;;10.18;9.43;;;-3.10;99.90;;;;;;5003289;28;20062;-74
2021/03/20 04:35:27;;;;;;;;;;;-3.20;99.90;;;;;;4986447;28;20370;-74
2021/03/20 04:37:57;;;;;;;10.95;9.93;;;-3.20;99.90;;;;;;4988443;28;20020;-75
2021/03/20 04:40:40;;;;;;;12.02;9.60;;;-3.20;99.90;;;;;;4976351;28;20597;-74
2021/03/20 04:43:09;;;;;;;9.80;9.00;;;-3.10;99.90;;;;;;4990175;28;20120;-75
2021/03/20 04:45:39;;;;;;;10.73;9.65;;;-3.10;99.90;;;;;;4984139;28;20445;-75
2021/03/20 04:48:40;;;;;;;9.32;8.55;;;-3.10;99.90;;;;;;4984428;28;20530;-74
2021/03/20 04:51:21;;;;;;;10.05;8.57;;;-3.20;99.90;;;;;;4949699;28;20120;-74
2021/03/20 04:53:53;;;;;;;8.70;8.10;;;-3.30;99.90;;;;;;5003003;28;20060;-73
2021/03/20 04:56:21;;;;;;;9.85;8.95;;;-3.40;99.90;;;;;;4975262;28;20062;-75
2021/03/20 04:59:04;;;;;;;8.75;8.07;;;-3.50;99.90;;;;;;4985353;28;20627;-76
2021/03/20 05:01:48;;;;;;;7.80;7.20;;;-3.50;99.90;;;;;;4987254;28;20054;-74
2021/03/20 05:04:22;;;;;;;8.85;7.80;;;-3.50;99.90;;;;;;4987264;28;20652;-74
2021/03/20 05:06:51;;;;;;;8.70;8.07;;;-3.50;99.90;;;;;;5003126;28;20129;-75
2021/03/20 05:09:23;;;;;;;8.80;8.25;;;-3.50;99.90;;;;;;5004723;28;20081;-75
2021/03/20 05:12:14;;;;;;;8.57;7.70;;;-3.50;99.90;;;;;;5005655;28;20172;-75
2021/03/20 05:14:59;;;;;;;8.88;8.18;;;-3.60;99.90;;;;;;4985356;28;20542;-76
2021/03/20 05:17:25;;;;;;;9.98;9.27;;;-3.60;99.90;;;;;;4981562;28;20230;-75
2021/03/20 05:19:52;;;;;;;9.90;9.18;;;-3.70;99.90;;;;;;4997817;28;20073;-73
2021/03/20 05:22:31;;;;;;;9.77;8.98;;;-3.70;99.90;;;;;;5005768;28;20069;-74
2021/03/20 05:24:59;;;;;;;11.02;9.90;;;-3.90;99.90;;;;;;5014861;28;20104;-75
2021/03/20 05:27:30;;;;;;;11.20;10.20;;;-4.10;99.90;;;;;;5005853;28;20073;-75
2021/03/20 05:29:57;;;;;;;12.10;11.10;;;-4.20;99.90;;;;;;4978286;28;20062;-74
2021/03/20 05:32:31;;;;;;;10.98;10.38;;;-4.30;99.90;;;;;;4985543;28;20050;-75
2021/03/20 05:35:00;;;;;;;11.20;10.27;;;-4.30;99.90;;;;;;4959421;28;20054;-74
2021/03/20 05:37:32;;;;;;;12.10;11.18;;;-4.30;99.90;;;;;;4988777;28;20135;-75
2021/03/20 05:39:59;;;;;;;12.10;11.07;;;-4.30;99.90;;;;;;5004483;28;20065;-75
2021/03/20 05:42:35;;;;;;;11.85;11.10;;;-4.30;99.90;;;;;;4988665;28;20503;-74
2021/03/20 05:45:17;;;;;;;11.75;10.82;;;-4.30;99.90;;;;;;4978103;28;20074;-75
2021/03/20 05:47:54;;;;;;;11.57;10.60;;;-4.30;99.90;;;;;;5005289;28;20045;-75
2021/03/20 05:50:32;;;;;;;11.93;11.05;;;-4.30;99.90;;;;;;4983726;28;20506;-74
2021/03/20 05:53:20;;;;;;;11.88;11.07;;;-4.30;99.90;;;;;;4998497;28;20412;-74
2021/03/20 05:55:51;;;;;;;11.75;10.75;;;-4.40;99.90;;;;;;5004948;28;20406;-74
2021/03/20 05:58:39;;;;;;;11.90;10.85;;;-4.40;99.90;;;;;;5005104;28;20149;-74
2021/03/20 06:01:37;;;;;;;12.88;11.65;;;-4.50;99.90;;;;;;4988831;28;20557;-74
2021/03/20 06:04:41;;;;;;;20.80;11.40;;;-4.30;99.90;;;;;;4971937;28;20053;-76
2021/03/20 06:07:26;;;;;;;12.05;11.18;;;-4.30;99.90;;;;;;5001131;28;20077;-74
2021/03/20 06:09:52;;;;;;;13.18;11.90;;;-4.20;99.90;;;;;;4985970;28;20140;-75
2021/03/20 06:12:57;;;;;;;11.90;11.10;;;-3.90;99.90;;;;;;5015640;28;20152;-75
2021/03/20 06:16:08;;;;;;;12.40;11.52;;;-3.80;99.90;;;;;;4947382;28;20138;-73
2021/03/20 06:19:03;;;;;;;11.68;10.75;;;-3.80;99.90;;;;;;4988966;28;20510;-74
2021/03/20 06:21:58;;;;;;;12.55;11.65;;;-3.80;99.90;;;;;;4984786;28;20049;-74
2021/03/20 06:25:10;;;;;;;12.48;11.50;;;-3.50;99.90;;;;;;5001455;28;20108;-75
2021/03/20 06:27:41;;;;;;;13.48;12.23;;;-3.40;99.90;;;;;;4985085;28;20057;-76
2021/03/20 06:30:29;;;;;;;12.27;11.35;;;-3.20;99.90;;;;;;4968029;28;20051;-74
2021/03/20 06:33:04;;;;;;;15.60;12.13;;;-3.10;99.90;;;;;;4969470;28;20082;-74
2021/03/20 06:35:37;;;;;;;14.15;12.73;;;-3.00;99.90;;;;;;4983829;28;20125;-74
2021/03/20 06:38:09;;;;;;;12.82;12.02;;;-3.00;99.90;;;;;;5001690;28;20639;-75
2021/03/20 06:40:50;;;;;;;12.20;11.43;;;-2.90;99.90;;;;;;5019592;28;20450;-75
2021/03/20 06:43:19;;;;;;;16.05;11.55;;;-3.00;99.90;;;;;;4987577;28;20132;-75
2021/03/20 06:45:48;;;;;;;12.80;11.70;;;-2.90;99.90;;;;;;5001815;28;20780;-74
2021/03/20 06:48:21;;;;;;;11.63;10.82;;;-2.90;99.90;;;;;;4972986;28;20176;-76
2021/03/20 06:50:54;;;;;;;12.18;11.40;;;-2.80;99.90;;;;;;5003844;28;20060;-75
2021/03/20 06:53:37;;;;;;;13.85;11.85;;;-2.60;99.90;;;;;;5020248;28;20137;-74
2021/03/20 06:56:07;;;;;;;11.80;11.00;;;-2.70;99.90;;;;;;5016610;28;20141;-74
2021/03/20 06:58:36;;;;;;;12.60;11.70;;;-2.50;99.90;;;;;;4980343;28;20041;-74
2021/03/20 07:01:19;;;;;;;13.60;12.55;;;-2.40;99.90;;;;;;4995366;28;20050;-76
2021/03/20 07:04:18;;;;;;;15.85;14.43;;;-2.10;99.90;;;;;;4984838;28;20506;-75
2021/03/20 07:07:06;;;;;;;20.40;18.90;;;-2.00;99.90;;;;;;5002871;28;20570;-74
2021/03/20 07:09:34;;;;;;;22.52;20.42;;;-1.90;99.90;;;;;;4971152;28;20140;-75
2021/03/20 07:12:17;;;;;;;21.40;19.77;;;-1.80;99.90;;;;;;5003454;28;20057;-76
2021/03/20 07:14:49;;;;;;;20.55;18.92;;;-1.80;99.90;;;;;;5003585;28;20072;-74
2021/03/20 07:17:25;;;;;;;18.20;16.85;;;-1.70;99.90;;;;;;4985537;28;20658;-76
2021/03/20 07:19:58;;;;;;;18.05;17.10;;;-1.50;99.90;;;;;;4982919;28;20045;-74
2021/03/20 07:22:47;;;;;;;17.27;16.20;;;-1.30;99.90;;;;;;4981547;28;20143;-76
2021/03/20 07:25:22;;;;;;;17.42;16.27;;;-1.20;99.90;;;;;;5001756;28;20045;-74
2021/03/20 07:27:48;;;;;;;17.33;16.23;;;-1.20;99.90;;;;;;5001860;28;20128;-74
2021/03/20 07:30:35;;;;;;;15.90;14.90;;;-1.10;99.90;;;;;;5015965;28;20111;-75
2021/03/20 07:33:31;;;;;;;16.38;15.27;;;-1.20;99.90;;;;;;4997315;28;20119;-74
2021/03/20 07:36:15;;;;;;;14.80;13.93;;;-1.00;99.90;;;;;;4994424;28;20061;-76
2021/03/20 07:38:42;;;;;;;36.67;15.48;;;-0.90;99.90;;;;;;5005091;28;20042;-75
2021/03/20 07:41:12;;;;;;;15.15;14.35;;;-0.80;99.90;;;;;;5011460;28;20050;-75
2021/03/20 07:43:39;;;;;;;15.95;15.05;;;-0.60;99.90;;;;;;4983958;28;20642;-75
2021/03/20 07:46:17;;;;;;;15.05;14.05;;;-0.60;99.90;;;;;;4979135;28;20054;-75
2021/03/20 07:48:45;;;;;;;16.00;14.98;;;-0.40;99.90;;;;;;4994703;28;20046;-75
2021/03/20 07:51:17;;;;;;;15.38;14.35;;;-0.20;99.90;;;;;;5000159;28;20050;-75
2021/03/20 07:53:50;;;;;;;16.55;15.52;;;0.20;99.90;;;;;;4983489;28;20646;-76
2021/03/20 07:56:25;;;;;;;16.05;15.00;;;0.70;99.90;;;;;;4981924;28;20198;-75
2021/03/20 07:59:01;;;;;;;;;;;1.30;99.90;;;;;;4977933;28;20145;-74
2021/03/20 08:01:31;;;;;;;15.52;14.63;;;1.60;99.90;;;;;;4998746;28;19927;-76
2021/03/20 08:04:01;;;;;;;14.60;13.82;;;1.70;99.90;;;;;;4992078;28;20093;-76
2021/03/20 08:06:31;;;;;;;15.32;14.38;;;2.00;99.90;;;;;;4975496;28;20085;-76
2021/03/20 08:09:23;;;;;;;15.00;14.30;;;2.00;99.90;;;;;;4998100;28;20557;-75
2021/03/20 08:11:58;;;;;;;14.20;13.50;;;2.10;99.90;;;;;;4997242;28;20053;-75
2021/03/20 08:14:33;;;;;;;14.57;13.88;;;2.20;99.90;;;;;;4986359;28;20074;-75
2021/03/20 08:17:00;;;;;;;;;;;2.20;99.90;;;;;;5002018;28;20697;-74
2021/03/20 08:19:31;;;;;;;14.68;13.77;;;2.40;99.90;;;;;;4984205;28;20483;-76
2021/03/20 08:22:03;;;;;;;14.00;13.30;;;2.50;99.90;;;;;;4983030;28;20141;-75
2021/03/20 08:24:41;;;;;;;14.23;13.32;;;2.50;99.90;;;;;;4964177;28;20053;-76
2021/03/20 08:27:21;;;;;;;13.45;12.82;;;2.50;99.90;;;;;;4986636;28;20156;-75
2021/03/20 08:29:58;;;;;;;13.35;12.85;;;2.60;99.90;;;;;;4970823;28;20046;-75
2021/03/20 08:32:51;;;;;;;14.35;13.75;;;2.60;99.90;;;;;;4998761;28;20057;-76
2021/03/20 08:35:40;;;;;;;14.85;14.05;;;2.70;98.00;;;;;;4997957;28;20058;-76
2021/03/20 08:38:19;;;;;;;14.05;13.35;;;2.50;98.80;;;;;;5000696;28;20520;-76
2021/03/20 08:41:07;;;;;;;14.85;14.05;;;2.80;98.50;;;;;;4997383;28;20417;-75
2021/03/20 08:43:48;;;;;;;14.40;13.70;;;3.30;99.80;;;;;;4985116;28;20088;-74
2021/03/20 08:46:33;;;;;;;14.25;13.40;;;3.20;98.90;;;;;;5006287;28;20469;-75
2021/03/20 08:49:24;;;;;;;14.45;13.75;;;3.30;98.70;;;;;;5005738;28;20108;-75
2021/03/20 08:52:24;;;;;;;14.18;13.57;;;3.30;98.40;;;;;;4985707;28;20069;-76
2021/03/20 08:54:57;;;;;;;14.20;13.52;;;3.40;95.00;;;;;;5011996;28;20054;-75
2021/03/20 08:58:04;;;;;;;13.75;13.15;;;3.30;95.10;;;;;;4986452;28;20065;-75
2021/03/20 09:00:37;;;;;;;14.50;13.65;;;3.70;94.40;;;;;;4988155;28;20165;-75
2021/03/20 09:03:11;;;;;;;13.35;12.80;;;3.70;91.90;;;;;;4989823;28;20792;-75
2021/03/20 09:05:47;;;;;;;13.95;13.25;;;3.50;90.80;;;;;;5002257;28;20057;-77
2021/03/20 09:08:27;;;;;;;;;;;3.30;91.50;;;;;;4986387;28;20157;-75
2021/03/20 09:11:20;;;;;;;13.45;12.85;;;3.30;91.20;;;;;;4981843;28;19922;-77
2021/03/20 09:13:48;;;;;;;13.95;13.25;;;3.40;91.90;;;;;;5006504;28;20060;-77
2021/03/20 09:16:45;;;;;;;13.57;13.00;;;3.40;88.50;;;;;;5006107;28;20042;-75
2021/03/20 09:19:23;;;;;;;13.85;13.15;;;3.60;86.80;;;;;;4990342;28;20050;-75
2021/03/20 09:21:52;;;;;;;14.18;13.50;;;4.00;88.30;;;;;;4986137;28;20068;-75
2021/03/20 09:24:23;;;;;;;13.98;13.38;;;4.30;89.20;;;;;;4995233;28;20495;-75
2021/03/20 09:26:53;;;;;;;14.15;13.35;;;4.30;91.50;;;;;;4972494;28;20085;-75
2021/03/20 09:29:21;;;;;;;13.27;12.57;;;4.40;90.50;;;;;;5007485;28;20083;-77
2021/03/20 09:31:54;;;;;;;13.45;12.85;;;4.40;90.40;;;;;;5005883;28;20069;-77
2021/03/20 09:34:30;;;;;;;12.88;12.30;;;4.40;87.10;;;;;;5005748;28;20624;-77
2021/03/20 09:36:57;;;;;;;12.88;12.38;;;4.50;83.60;;;;;;4981528;28;20062;-76
2021/03/20 09:39:50;;;;;;;13.65;12.60;;;4.40;84.00;;;;;;4983888;28;20053;-76
2021/03/20 09:42:32;;;;;;;13.15;12.45;;;4.50;85.60;;;;;;5013807;28;20074;-76
2021/03/20 09:45:11;;;;;;;13.57;12.93;;;4.40;88.80;;;;;;4985518;28;20047;-75
2021/03/20 09:47:48;;;;;;;14.25;13.20;;;4.30;88.70;;;;;;4954234;28;20057;-75
2021/03/20 09:50:20;;;;;;;13.70;13.00;;;4.40;91.20;;;;;;4998040;28;20058;-75
2021/03/20 09:53:08;;;;;;;14.60;13.70;;;4.40;91.30;;;;;;5002907;28;20065;-75
2021/03/20 09:55:41;;;;;;;14.35;13.60;;;4.40;91.50;;;;;;4983952;28;20574;-76
2021/03/20 09:58:20;;;;;;;13.35;12.80;;;4.30;90.60;;;;;;5001457;28;20084;-74
2021/03/20 10:00:53;;;;;;;14.65;13.75;;;4.00;90.00;;;;;;4988283;28;20121;-75
2021/03/20 10:03:43;;;;;;;13.35;12.75;;;4.00;90.70;;;;;;5005132;28;20057;-76
2021/03/20 10:06:33;;;;;;;13.15;12.55;;;4.00;92.40;;;;;;4987376;28;20206;-75
2021/03/20 10:09:12;;;;;;;14.40;13.35;;;3.80;90.10;;;;;;4986656;28;20133;-75
2021/03/20 10:12:00;;;;;;;13.65;13.05;;;3.70;90.50;;;;;;5002970;28;20136;-75
2021/03/20 10:14:30;;;;;;;13.80;13.20;;;3.70;91.40;;;;;;5003337;28;20060;-75
2021/03/20 10:17:08;;;;;;;13.73;12.95;;;3.90;94.30;;;;;;5013768;28;20152;-75
2021/03/20 10:19:42;;;;;;;13.45;12.75;;;4.20;92.20;;;;;;4988290;28;20413;-76
2021/03/20 10:22:25;;;;;;;13.50;12.90;;;4.10;87.40;;;;;;4988048;28;20038;-77
2021/03/20 10:24:53;;;;;;;13.63;13.02;;;4.10;86.20;;;;;;4996323;28;20066;-75
2021/03/20 10:27:41;;;;;;;13.80;13.20;;;4.40;92.70;;;;;;4978743;28;20217;-76
2021/03/20 10:30:11;;;;;;;14.15;13.30;;;4.10;91.00;;;;;;5001321;28;20153;-75
2021/03/20 10:32:37;;;;;;;13.98;13.30;;;4.20;92.30;;;;;;5005576;28;20517;-75
2021/03/20 10:35:08;;;;;;;13.70;13.07;;;4.30;93.10;;;;;;4988435;28;20084;-75
2021/03/20 10:37:35;;;;;;;14.25;13.52;;;4.10;94.20;;;;;;4987559;28;20590;-75
2021/03/20 10:40:09;;;;;;;13.63;12.93;;;4.00;94.70;;;;;;5005779;28;20114;-77
2021/03/20 10:42:40;;;;;;;12.80;12.20;;;4.10;94.20;;;;;;5002933;28;20041;-76
2021/03/20 10:45:30;;;;;;;13.23;12.38;;;4.10;92.80;;;;;;5012648;28;20081;-76
2021/03/20 10:48:25;;;;;;;12.32;11.63;;;4.10;92.20;;;;;;5005764;28;20054;-75
2021/03/20 10:51:01;;;;;;;13.00;12.40;;;4.50;93.30;;;;;;5004661;28;20077;-76
2021/03/20 10:53:42;;;;;;;13.38;12.68;;;4.80;91.50;;;;;;5018276;28;20073;-75
2021/03/20 10:56:25;;;;;;;13.48;12.77;;;4.80;91.10;;;;;;4988023;28;20731;-76
2021/03/20 10:58:51;;;;;;;12.55;11.77;;;4.80;90.30;;;;;;4987582;28;20495;-75
2021/03/20 11:01:30;;;;;;;11.77;11.18;;;4.70;90.80;;;;;;5002828;28;20042;-76
2021/03/20 11:03:57;;;;;;;12.00;11.50;;;4.70;90.00;;;;;;4999755;28;20050;-77
2021/03/20 11:06:24;;;;;;;11.95;11.25;;;4.50;89.80;;;;;;5000885;28;20041;-77
2021/03/20 11:09:18;;;;;;;13.73;12.82;;;4.40;92.50;;;;;;5003577;28;20601;-77
2021/03/20 11:11:45;;;;;;;12.05;11.48;;;4.20;90.00;;;;;;4982102;28;20050;-75
2021/03/20 11:14:21;;;;;;;11.75;10.93;;;4.30;91.70;;;;;;5005144;28;20133;-76
2021/03/20 11:17:05;;;;;;;13.27;12.48;;;4.50;92.10;;;;;;4987648;28;20078;-76
2021/03/20 11:19:35;;;;;;;12.25;11.55;;;4.70;91.90;;;;;;4983960;28;20046;-77
2021/03/20 11:22:22;;;;;;;11.95;11.43;;;4.80;91.60;;;;;;4994317;28;20062;-77
2021/03/20 11:25:03;;;;;;;12.93;12.10;;;4.90;90.50;;;;;;4999917;28;20054;-75
2021/03/20 11:27:34;;;;;;;12.23;11.73;;;4.70;87.90;;;;;;4984804;28;20065;-75
2021/03/20 11:30:20;;;;;;;11.65;11.15;;;4.70;90.50;;;;;;5000821;28;20072;-76
2021/03/20 11:32:48;;;;;;;12.38;11.77;;;4.70;87.90;;;;;;5003643;28;20081;-75
2021/03/20 11:35:33;;;;;;;12.65;11.98;;;5.00;89.70;;;;;;4986032;28;20058;-76
2021/03/20 11:38:01;;;;;;;12.43;11.65;;;5.20;88.90;;;;;;4987809;28;20177;-75
2021/03/20 11:40:33;;;;;;;12.10;11.23;;;5.20;90.30;;;;;;5003767;28;20156;-75
2021/03/20 11:43:06;;;;;;;12.75;12.15;;;5.20;89.60;;;;;;4980762;28;20133;-75
2021/03/20 11:45:39;;;;;;;12.23;11.73;;;5.30;90.10;;;;;;4999404;28;20073;-76
2021/03/20 11:48:33;;;;;;;12.35;11.70;;;5.40;90.40;;;;;;5012034;28;20173;-76
2021/03/20 11:51:02;;;;;;;13.13;12.38;;;5.50;89.80;;;;;;4983669;28;20050;-76
2021/03/20 11:53:28;;;;;;;12.68;12.07;;;5.40;86.20;;;;;;4976957;28;20081;-76
2021/03/20 11:55:56;;;;;;;12.77;12.15;;;5.20;85.50;;;;;;4986806;28;20454;-75
2021/03/20 11:58:33;;;;;;;12.15;11.55;;;5.30;85.20;;;;;;4985628;28;20046;-76
2021/03/20 12:01:20;;;;;;;12.00;11.40;;;5.00;82.80;;;;;;4975671;28;20054;-76
2021/03/20 12:03:49;;;;;;;12.93;12.25;;;4.80;81.20;;;;;;4995609;28;20053;-75
2021/03/20 12:06:15;;;;;;;11.38;10.75;;;4.70;79.90;;;;;;4986463;28;20057;-75
2021/03/20 12:08:45;;;;;;;11.68;11.13;;;4.70;77.30;;;;;;4986838;28;20144;-75
2021/03/20 12:11:14;;;;;;;12.20;11.60;;;4.60;80.50;;;;;;4970879;28;20053;-73
2021/03/20 12:13:52;;;;;;;12.90;11.90;;;4.70;83.50;;;;;;5013725;28;20046;-75
2021/03/20 12:16:30;;;;;;;12.98;12.38;;;4.90;90.20;;;;;;4984134;28;20054;-75
2021/03/20 12:19:19;;;;;;;12.88;12.18;;;5.20;90.50;;;;;;4991301;28;20065;-75
2021/03/20 12:21:55;;;;;;;12.68;11.98;;;5.20;90.10;;;;;;5003512;28;20045;-75
2021/03/20 12:24:44;;;;;;;13.38;12.48;;;5.20;91.40;;;;;;4974950;28;20053;-76
2021/03/20 12:27:37;;;;;;;11.93;11.23;;;5.40;88.90;;;;;;5008178;28;20065;-76
2021/03/20 12:30:27;;;;;;;12.25;11.65;;;5.50;86.20;;;;;;5016431;28;20226;-76
2021/03/20 12:33:18;;;;;;;12.50;11.68;;;5.50;90.50;;;;;;5002816;28;20517;-74
2021/03/20 12:35:47;;;;;;;12.30;11.70;;;5.20;88.30;;;;;;4993644;28;20058;-75
2021/03/20 12:38:13;;;;;;;12.07;11.38;;;5.30;90.40;;;;;;4996369;28;20565;-75
2021/03/20 12:41:01;;;;;;;12.18;11.52;;;5.40;89.80;;;;;;5006058;28;20053;-74
2021/03/20 12:43:33;;;;;;;12.18;11.43;;;5.50;88.10;;;;;;5000324;28;20148;-75
2021/03/20 12:46:04;;;;;;;14.32;13.20;;;5.60;90.70;;;;;;4988842;28;20053;-74
2021/03/20 12:48:32;;;;;;;12.77;11.88;;;5.40;87.40;;;;;;5005956;28;20111;-74
2021/03/20 12:51:05;;;;;;;12.23;11.43;;;5.60;88.90;;;;;;4990945;28;20056;-75
2021/03/20 12:53:32;;;;;;;12.90;12.13;;;5.70;83.70;;;;;;5007500;28;20071;-75
2021/03/20 12:55:58;;;;;;;16.98;15.30;;;5.70;86.30;;;;;;5006058;28;20049;-76
2021/03/20 12:58:25;;;;;;;13.45;12.43;;;5.60;87.30;;;;;;5006555;28;20080;-76
2021/03/20 13:00:52;;;;;;;13.02;12.27;;;5.60;88.70;;;;;;5006297;28;20104;-75
2021/03/20 13:03:20;;;;;;;13.25;12.05;;;5.70;87.00;;;;;;4982396;28;20053;-74
2021/03/20 13:05:47;;;;;;;11.90;11.30;;;5.60;86.50;;;;;;4986216;28;20549;-76
2021/03/20 13:08:13;;;;;;;12.50;11.30;;;5.90;87.40;;;;;;5002965;28;20525;-74
2021/03/20 13:10:41;;;;;;;11.45;10.88;;;5.90;78.80;;;;;;4995851;28;20051;-75
2021/03/20 13:13:08;;;;;;;11.35;10.75;;;6.00;82.30;;;;;;4986838;28;20050;-74
2021/03/20 13:15:34;;;;;;;12.02;11.30;;;6.00;82.90;;;;;;4985492;28;20133;-75
2021/03/20 13:18:02;;;;;;;11.88;11.02;;;5.90;79.90;;;;;;4986774;28;20054;-74